Time;durP1;ratioP1;P1;durP2;ratioP2;P2;SDS_P1;SDS_P2;PMS_P1;PMS_P2;Temp;Humidity;BMP_temperature;BMP_pressure;BME280_temperature;BME280_humidity;BME280_pressure;Samples;Min_cycle;Max_cycle;Signal;HPM_P1;HPM_P2
2021/12/28 00:02:00;;;;;;;26.92;18.80;;;8.20;99.90;;;;;;6165038;23;20410;-86
2021/12/28 00:04:26;;;;;;;28.52;18.52;;;8.20;99.90;;;;;;6161035;23;20008;-86
2021/12/28 00:06:53;;;;;;;31.33;20.50;;;8.20;99.90;;;;;;6161589;23;20005;-87
2021/12/28 00:09:18;;;;;;;26.33;19.13;;;8.20;99.90;;;;;;6160780;23;20028;-87
2021/12/28 00:11:45;;;;;;;25.67;17.50;;;8.20;99.90;;;;;;6137003;23;20373;-87
2021/12/28 00:14:11;;;;;;;26.67;18.27;;;8.20;99.90;;;;;;6161302;23;20001;-87
2021/12/28 00:19:23;;;;;;;27.63;18.58;;;8.20;99.90;;;;;;6164725;23;20020;-87
2021/12/28 00:21:51;;;;;;;23.70;16.67;;;8.20;99.90;;;;;;6159741;23;20089;-87
2021/12/28 00:24:19;;;;;;;21.23;14.95;;;8.10;99.90;;;;;;6137988;23;20029;-87
2021/12/28 00:26:46;;;;;;;25.02;17.13;;;8.10;99.90;;;;;;6186765;23;20004;-87
2021/12/28 00:29:12;;;;;;;24.88;16.33;;;8.10;99.90;;;;;;6161247;23;20117;-87
2021/12/28 00:31:39;;;;;;;30.38;18.95;;;8.00;99.90;;;;;;6136264;23;20009;-86
2021/12/28 00:34:09;;;;;;;21.48;15.52;;;8.00;99.90;;;;;;6161607;23;20088;-86
2021/12/28 00:36:39;;;;;;;26.75;16.70;;;8.00;99.90;;;;;;6137101;23;20005;-86
2021/12/28 00:39:07;;;;;;;25.63;16.30;;;7.90;99.90;;;;;;6187992;23;19997;-86
2021/12/28 00:41:34;;;;;;;26.15;16.92;;;7.90;99.90;;;;;;6161227;23;20009;-86
2021/12/28 00:44:02;;;;;;;27.90;16.85;;;7.90;99.90;;;;;;6188434;23;20004;-87
2021/12/28 00:46:30;;;;;;;22.40;15.10;;;7.80;99.90;;;;;;6147023;23;20025;-88
2021/12/28 00:48:57;;;;;;;30.98;16.15;;;7.80;99.90;;;;;;6212200;22;19996;-88
2021/12/28 00:51:23;;;;;;;23.13;14.57;;;7.80;99.90;;;;;;6211651;23;20001;-88
2021/12/28 00:53:49;;;;;;;25.13;13.43;;;7.70;99.90;;;;;;6119640;23;20001;-87
2021/12/28 00:56:15;;;;;;;25.25;14.10;;;7.70;99.90;;;;;;6138565;23;20032;-87
2021/12/28 00:58:41;;;;;;;24.45;14.13;;;7.70;99.90;;;;;;6162204;23;20008;-87
2021/12/28 01:01:06;;;;;;;26.70;15.25;;;7.70;99.90;;;;;;6161487;23;20013;-87
2021/12/28 01:03:34;;;;;;;30.48;15.70;;;7.70;99.90;;;;;;6188031;23;20001;-86
2021/12/28 01:06:02;;;;;;;24.20;13.48;;;7.70;99.90;;;;;;6161139;23;20012;-87
2021/12/28 01:08:33;;;;;;;28.75;14.30;;;7.70;99.90;;;;;;6186956;23;19998;-86
2021/12/28 01:11:20;;;;;;;21.95;12.70;;;7.70;99.90;;;;;;6188153;23;20432;-87
2021/12/28 01:13:47;;;;;;;23.23;12.57;;;7.70;99.90;;;;;;6189059;23;20004;-87
2021/12/28 01:16:16;;;;;;;18.70;10.32;;;7.60;99.90;;;;;;6164252;23;20001;-87
2021/12/28 01:18:42;;;;;;;19.85;11.18;;;7.50;99.90;;;;;;6161023;23;20396;-86
2021/12/28 01:21:09;;;;;;;19.65;10.90;;;7.50;99.90;;;;;;6160351;23;20016;-86
2021/12/28 01:23:35;;;;;;;22.58;13.90;;;7.40;99.90;;;;;;6160989;23;20106;-86
2021/12/28 01:26:02;;;;;;;24.90;14.07;;;7.40;99.90;;;;;;6134957;23;20015;-86
2021/12/28 01:28:27;;;;;;;27.13;14.02;;;7.40;99.90;;;;;;6160971;23;19997;-85
2021/12/28 01:30:53;;;;;;;30.00;14.88;;;7.40;99.90;;;;;;6159888;23;20067;-85
2021/12/28 01:33:22;;;;;;;25.90;14.63;;;7.40;99.90;;;;;;6187088;23;20028;-86
2021/12/28 01:35:50;;;;;;;24.95;14.27;;;7.40;99.90;;;;;;6135855;23;20044;-86
2021/12/28 01:38:17;;;;;;;28.73;15.93;;;7.50;99.90;;;;;;6186398;23;20021;-86
2021/12/28 01:40:45;;;;;;;27.92;15.93;;;7.60;99.90;;;;;;6159495;23;20056;-86
2021/12/28 01:43:13;;;;;;;24.25;14.45;;;7.60;99.90;;;;;;6160156;23;20420;-86
2021/12/28 01:45:53;;;;;;;23.88;13.50;;;7.60;99.90;;;;;;6161127;23;20005;-87
2021/12/28 01:48:23;;;;;;;31.00;15.95;;;7.70;99.90;;;;;;6186000;23;20005;-88
2021/12/28 01:50:51;;;;;;;27.63;14.52;;;7.70;99.90;;;;;;6154856;23;20059;-87
2021/12/28 01:53:17;;;;;;;28.27;14.32;;;7.70;99.90;;;;;;6134589;23;20005;-87
2021/12/28 01:55:45;;;;;;;25.17;13.27;;;7.70;99.90;;;;;;6186059;23;19997;-86
2021/12/28 01:58:12;;;;;;;24.95;13.18;;;7.70;99.90;;;;;;6134658;23;20009;-87
2021/12/28 02:00:41;;;;;;;21.75;12.57;;;7.70;99.90;;;;;;6160015;23;20005;-87
2021/12/28 02:03:10;;;;;;;26.23;13.20;;;7.70;99.90;;;;;;6186619;23;20005;-86
2021/12/28 02:05:37;;;;;;;28.75;14.48;;;7.70;99.90;;;;;;6184358;23;20005;-86
2021/12/28 02:08:04;;;;;;;28.73;13.60;;;7.60;99.90;;;;;;6162754;23;20009;-86
2021/12/28 02:10:30;;;;;;;32.20;14.43;;;7.60;99.90;;;;;;6186915;23;20031;-86
2021/12/28 02:12:56;;;;;;;24.13;13.77;;;7.70;99.90;;;;;;6166041;23;20024;-84
2021/12/28 02:15:25;;;;;;;31.58;14.93;;;7.60;99.90;;;;;;6144300;23;20009;-85
2021/12/28 02:17:51;;;;;;;30.02;13.13;;;7.60;99.90;;;;;;6206245;23;19997;-85
2021/12/28 02:20:19;;;;;;;27.63;12.77;;;7.60;99.90;;;;;;6181662;23;20028;-84
2021/12/28 02:22:46;;;;;;;27.17;12.93;;;7.60;99.90;;;;;;6164871;23;20009;-86
2021/12/28 02:25:13;;;;;;;36.28;13.93;;;7.60;99.90;;;;;;6136018;23;20075;-86
2021/12/28 02:27:39;;;;;;;30.88;13.30;;;7.60;99.90;;;;;;6161896;23;20038;-87
2021/12/28 02:30:12;;;;;;;26.15;12.38;;;7.60;99.90;;;;;;6167602;23;20334;-86
2021/12/28 02:32:39;;;;;;;27.52;12.70;;;7.60;99.90;;;;;;6168884;23;20147;-86
2021/12/28 02:35:12;;;;;;;29.70;13.10;;;7.60;99.90;;;;;;6182362;23;20013;-85
2021/12/28 02:37:39;;;;;;;;;;;7.60;99.90;;;;;;6213763;22;20004;-87
2021/12/28 02:40:07;;;;;;;28.42;11.50;;;7.60;99.90;;;;;;6187446;23;19892;-87
2021/12/28 02:42:33;;;;;;;26.63;11.38;;;7.50;99.90;;;;;;6177478;23;20075;-86
2021/12/28 02:45:07;;;;;;;20.35;10.43;;;7.50;99.90;;;;;;6188823;23;20001;-87
2021/12/28 02:47:34;;;;;;;32.65;13.10;;;7.50;99.90;;;;;;6186679;23;20002;-87
2021/12/28 02:50:06;;;;;;;28.88;12.73;;;7.50;99.90;;;;;;6135578;23;20346;-87
2021/12/28 02:52:36;;;;;;;30.15;13.32;;;7.40;99.90;;;;;;6135843;23;20039;-87
2021/12/28 02:55:04;;;;;;;37.47;13.65;;;7.40;99.90;;;;;;6163593;23;20012;-86
2021/12/28 02:57:33;;;;;;;31.00;13.35;;;7.40;99.90;;;;;;6162104;23;19997;-87
2021/12/28 02:59:59;;;;;;;30.40;12.30;;;7.30;99.90;;;;;;6160691;23;20113;-86
2021/12/28 03:02:27;;;;;;;30.80;12.10;;;7.20;99.90;;;;;;6163405;23;20299;-87
2021/12/28 03:04:53;;;;;;;24.02;11.25;;;7.30;99.90;;;;;;6164565;23;20076;-87
2021/12/28 03:07:19;;;;;;;18.65;9.63;;;7.20;99.90;;;;;;6164037;23;20024;-86
2021/12/28 03:09:44;;;;;;;17.30;9.60;;;7.20;99.90;;;;;;6164106;23;20004;-87
2021/12/28 03:12:10;;;;;;;17.70;8.88;;;7.20;99.90;;;;;;6161874;23;20032;-87
2021/12/28 03:14:37;;;;;;;17.15;8.30;;;7.20;99.90;;;;;;6189169;23;20033;-86
2021/12/28 03:17:05;;;;;;;13.60;7.35;;;7.20;99.90;;;;;;6138188;23;20005;-86
2021/12/28 03:19:30;;;;;;;17.95;8.60;;;7.10;99.90;;;;;;6163995;23;20001;-87
2021/12/28 03:22:02;;;;;;;17.08;8.07;;;7.10;99.90;;;;;;6164727;23;20087;-87
2021/12/28 03:24:28;;;;;;;14.93;7.78;;;7.20;99.90;;;;;;6188810;23;20001;-87
2021/12/28 03:26:56;;;;;;;12.85;7.63;;;7.20;99.90;;;;;;6161816;23;20084;-86
2021/12/28 03:29:22;;;;;;;12.40;7.03;;;7.20;99.90;;;;;;6189197;23;20005;-87
2021/12/28 03:31:48;;;;;;;17.73;8.00;;;7.10;99.90;;;;;;6161875;23;20445;-87
2021/12/28 03:34:18;;;;;;;10.93;7.43;;;7.10;99.90;;;;;;6161329;23;20531;-87
2021/12/28 03:36:43;;;;;;;12.45;7.05;;;7.00;99.90;;;;;;6162363;23;20333;-87
2021/12/28 03:39:11;;;;;;;9.93;6.07;;;6.90;99.90;;;;;;6162369;23;20004;-87
2021/12/28 03:41:37;;;;;;;11.73;6.45;;;6.90;99.90;;;;;;6188093;23;20717;-86
2021/12/28 03:44:03;;;;;;;9.68;5.88;;;6.90;99.90;;;;;;6161789;23;20067;-87
2021/12/28 03:46:32;;;;;;;11.07;6.28;;;6.80;99.90;;;;;;6160356;23;20005;-87
2021/12/28 03:49:11;;;;;;;10.63;6.00;;;6.80;99.90;;;;;;6137775;23;20001;-87
2021/12/28 03:51:36;;;;;;;12.02;6.53;;;6.80;99.90;;;;;;6139929;23;20429;-87
2021/12/28 03:54:02;;;;;;;9.85;5.93;;;6.80;99.90;;;;;;6187660;23;19997;-87
2021/12/28 03:56:28;;;;;;;10.90;6.20;;;6.80;99.90;;;;;;6161667;23;20008;-88
2021/12/28 03:58:54;;;;;;;15.10;7.50;;;6.80;99.90;;;;;;6162914;23;20012;-87
2021/12/28 04:01:24;;;;;;;12.35;6.88;;;6.90;99.90;;;;;;6137888;23;20361;-87
2021/12/28 04:03:50;;;;;;;13.15;6.97;;;6.90;99.90;;;;;;6162073;23;20005;-87
2021/12/28 04:06:20;;;;;;;11.00;7.05;;;6.90;99.90;;;;;;6160779;23;20422;-87
2021/12/28 04:08:47;;;;;;;11.55;6.63;;;6.90;99.90;;;;;;6162744;23;20080;-87
2021/12/28 04:11:16;;;;;;;14.07;6.80;;;6.90;99.90;;;;;;6161651;23;20079;-86
2021/12/28 04:13:44;;;;;;;14.25;7.38;;;6.90;99.90;;;;;;6162536;23;20291;-87
2021/12/28 04:16:10;;;;;;;14.13;7.15;;;7.00;99.90;;;;;;6161363;23;20012;-87
2021/12/28 04:18:36;;;;;;;13.75;7.07;;;7.00;99.90;;;;;;6161327;23;20040;-86
2021/12/28 04:21:03;;;;;;;15.60;7.30;;;7.00;99.90;;;;;;6188074;23;20005;-87
2021/12/28 04:23:29;;;;;;;11.57;6.93;;;7.00;99.90;;;;;;6188420;23;20012;-87
2021/12/28 04:25:58;;;;;;;13.27;7.00;;;7.00;99.90;;;;;;6165005;23;19997;-87
2021/12/28 04:28:23;;;;;;;19.05;8.75;;;7.00;99.90;;;;;;6151286;23;20001;-87
2021/12/28 04:30:50;;;;;;;15.90;7.93;;;7.00;99.90;;;;;;6185666;23;20029;-87
2021/12/28 04:33:18;;;;;;;16.60;7.90;;;7.00;99.90;;;;;;6212860;23;20028;-87
2021/12/28 04:35:44;;;;;;;14.38;7.38;;;7.00;99.90;;;;;;6170593;23;20021;-86
2021/12/28 04:38:09;;;;;;;13.75;8.07;;;7.00;99.90;;;;;;6187624;23;20333;-87
2021/12/28 04:40:35;;;;;;;11.77;7.13;;;7.00;99.90;;;;;;6162701;23;20005;-87
2021/12/28 04:43:01;;;;;;;11.55;6.95;;;7.10;99.90;;;;;;6161526;23;20079;-86
2021/12/28 04:45:27;;;;;;;13.32;6.55;;;7.10;99.90;;;;;;6136253;23;20040;-85
2021/12/28 04:47:52;;;;;;;11.27;6.22;;;7.10;99.90;;;;;;6161042;23;20115;-84
2021/12/28 04:50:18;;;;;;;13.25;6.47;;;7.10;99.90;;;;;;6187415;23;19997;-85
2021/12/28 04:52:45;;;;;;;13.50;6.30;;;7.10;99.90;;;;;;6161289;23;20005;-86
2021/12/28 04:55:16;;;;;;;12.50;7.22;;;7.20;99.90;;;;;;6159984;23;20422;-87
2021/12/28 04:57:43;;;;;;;12.77;6.68;;;7.20;99.90;;;;;;6161376;23;20015;-86
2021/12/28 05:00:16;;;;;;;13.25;6.30;;;7.20;99.90;;;;;;6186946;23;19997;-86
2021/12/28 05:02:42;;;;;;;12.98;6.75;;;7.20;99.90;;;;;;6161113;23;20071;-86
2021/12/28 05:05:09;;;;;;;9.98;5.68;;;7.20;99.90;;;;;;6136317;23;20016;-86
2021/12/28 05:07:35;;;;;;;12.25;6.35;;;7.20;99.90;;;;;;6160806;23;20441;-85
2021/12/28 05:10:01;;;;;;;12.13;6.47;;;7.30;99.90;;;;;;6160945;23;20005;-86
2021/12/28 05:12:27;;;;;;;14.77;7.25;;;7.20;99.90;;;;;;6187137;23;20075;-86
2021/12/28 05:14:54;;;;;;;11.68;6.22;;;7.30;99.90;;;;;;6161449;23;20007;-86
2021/12/28 05:17:21;;;;;;;11.40;6.63;;;7.30;99.90;;;;;;6160737;23;20076;-86
2021/12/28 05:19:47;;;;;;;10.90;5.70;;;7.30;99.90;;;;;;6161450;23;20001;-85
2021/12/28 05:22:14;;;;;;;13.02;6.57;;;7.30;99.90;;;;;;6186687;23;20076;-86
2021/12/28 05:24:43;;;;;;;14.68;7.35;;;7.30;99.90;;;;;;6187236;23;20005;-86
2021/12/28 05:27:09;;;;;;;14.43;6.57;;;7.30;99.90;;;;;;6136150;23;20013;-86
2021/12/28 05:29:35;;;;;;;20.75;7.93;;;7.40;99.90;;;;;;6160868;23;20426;-85
2021/12/28 05:32:03;;;;;;;30.13;10.43;;;7.40;99.90;;;;;;6187465;23;20027;-85
2021/12/28 05:34:31;;;;;;;23.52;9.35;;;7.40;99.90;;;;;;6135862;23;20017;-86
2021/12/28 05:36:57;;;;;;;21.17;9.30;;;7.40;99.90;;;;;;6157378;23;20009;-86
2021/12/28 05:39:24;;;;;;;22.98;8.95;;;7.50;99.90;;;;;;6158698;23;20001;-87
2021/12/28 05:41:53;;;;;;;33.25;10.73;;;7.50;99.90;;;;;;6157565;23;20072;-86
2021/12/28 05:44:18;;;;;;;23.08;8.82;;;7.40;99.90;;;;;;6159743;23;20005;-86
2021/12/28 05:46:47;;;;;;;19.73;9.52;;;7.50;99.90;;;;;;6158340;23;20001;-86
2021/12/28 05:49:13;;;;;;;32.00;10.80;;;7.50;99.90;;;;;;6184693;23;20072;-86
2021/12/28 05:51:39;;;;;;;32.30;11.57;;;7.50;99.90;;;;;;6158166;23;20024;-86
2021/12/28 05:54:05;;;;;;;22.45;9.10;;;7.50;99.90;;;;;;6184206;23;20410;-85
2021/12/28 05:56:32;;;;;;;28.70;9.20;;;7.50;99.90;;;;;;6158296;23;20001;-85
2021/12/28 05:58:58;;;;;;;22.95;9.05;;;7.40;99.90;;;;;;6184623;23;20009;-86
2021/12/28 06:01:24;;;;;;;30.00;9.82;;;7.50;99.90;;;;;;6157861;23;20096;-85
2021/12/28 06:03:55;;;;;;;21.80;8.85;;;7.40;99.90;;;;;;6158125;23;20311;-86
2021/12/28 06:06:21;;;;;;;21.92;8.43;;;7.40;99.90;;;;;;6163769;23;20392;-86
2021/12/28 06:08:47;;;;;;;21.88;8.85;;;7.40;99.90;;;;;;6157331;23;20029;-86
2021/12/28 06:11:13;;;;;;;24.75;8.43;;;7.50;99.90;;;;;;6162575;23;20453;-86
2021/12/28 06:13:42;;;;;;;21.42;8.55;;;7.50;99.90;;;;;;6133799;23;20032;-87
2021/12/28 06:16:09;;;;;;;26.33;9.07;;;7.50;99.90;;;;;;6184605;23;19997;-86
2021/12/28 06:18:35;;;;;;;21.35;7.88;;;7.50;99.90;;;;;;6159509;23;20001;-86
2021/12/28 06:21:04;;;;;;;28.23;9.00;;;7.50;99.90;;;;;;6167970;23;20056;-87
2021/12/28 06:23:31;;;;;;;18.90;7.30;;;7.60;99.90;;;;;;6156892;23;19997;-87
2021/12/28 06:26:03;;;;;;;22.05;7.30;;;7.60;99.90;;;;;;6185513;22;19994;-86
2021/12/28 06:28:34;;;;;;;22.42;6.75;;;7.60;99.90;;;;;;6131721;23;20019;-86
2021/12/28 06:31:03;;;;;;;22.60;7.32;;;7.70;99.90;;;;;;6171544;23;19997;-85
2021/12/28 06:33:31;;;;;;;28.33;7.68;;;7.80;99.90;;;;;;6192538;23;20016;-87
2021/12/28 06:35:58;;;;;;;26.23;7.60;;;7.80;99.90;;;;;;6152411;23;20025;-88
2021/12/28 06:38:25;;;;;;;22.10;7.00;;;7.80;99.90;;;;;;6159478;23;20005;-87
2021/12/28 06:40:51;;;;;;;19.85;7.32;;;7.80;99.90;;;;;;6159174;23;20009;-89
2021/12/28 06:43:18;;;;;;;24.55;7.25;;;7.90;99.90;;;;;;6161187;23;20007;-87
2021/12/28 06:45:47;;;;;;;25.05;7.18;;;7.90;99.90;;;;;;6161317;23;20013;-88
2021/12/28 06:48:13;;;;;;;20.65;6.65;;;7.90;99.90;;;;;;6190554;23;20330;-87
2021/12/28 06:50:39;;;;;;;18.73;7.13;;;7.90;99.90;;;;;;6160047;23;20001;-87
2021/12/28 06:53:05;;;;;;;18.27;6.95;;;7.90;99.90;;;;;;6160112;23;20017;-87
2021/12/28 06:55:32;;;;;;;22.92;7.65;;;7.90;99.90;;;;;;6185554;23;20366;-87
2021/12/28 06:57:58;;;;;;;24.50;6.57;;;7.90;99.90;;;;;;6159249;23;20099;-88
2021/12/28 07:00:26;;;;;;;15.60;6.03;;;7.90;99.90;;;;;;6134374;23;20036;-87
2021/12/28 07:02:51;;;;;;;24.35;6.60;;;7.90;99.90;;;;;;6162285;23;20056;-87
2021/12/28 07:05:18;;;;;;;22.02;7.15;;;8.00;99.90;;;;;;6185906;23;20024;-87
2021/12/28 07:07:44;;;;;;;22.17;6.55;;;8.00;99.90;;;;;;6159814;23;20427;-87
2021/12/28 07:10:11;;;;;;;21.58;7.65;;;8.00;99.90;;;;;;6160821;23;20004;-87
2021/12/28 07:12:39;;;;;;;22.73;5.97;;;8.10;99.90;;;;;;6186998;23;20029;-88
2021/12/28 07:15:11;;;;;;;19.60;5.35;;;8.10;99.90;;;;;;6159905;23;20004;-88
2021/12/28 07:17:39;;;;;;;21.42;5.90;;;8.10;99.90;;;;;;6160658;23;20422;-88
2021/12/28 07:20:05;;;;;;;25.15;6.28;;;8.10;99.90;;;;;;6185580;23;20418;-87
2021/12/28 07:22:33;;;;;;;21.65;5.75;;;8.20;99.90;;;;;;6161855;23;20409;-87
2021/12/28 07:24:58;;;;;;;15.95;5.50;;;8.20;99.90;;;;;;6137335;23;20400;-86
2021/12/28 07:27:25;;;;;;;17.98;5.78;;;8.20;99.90;;;;;;6190822;23;20029;-86
2021/12/28 07:29:51;;;;;;;17.95;5.70;;;8.20;99.90;;;;;;6195755;23;20005;-86
2021/12/28 07:32:18;;;;;;;20.85;6.25;;;8.20;99.90;;;;;;6147138;23;20012;-86
2021/12/28 07:34:44;;;;;;;19.27;6.43;;;8.20;99.90;;;;;;6169736;23;20079;-86
2021/12/28 07:37:10;;;;;;;20.48;6.20;;;8.20;99.90;;;;;;6135579;23;20019;-87
2021/12/28 07:39:37;;;;;;;17.40;5.43;;;8.20;99.90;;;;;;6160840;23;20497;-87
2021/12/28 07:42:05;;;;;;;26.50;6.10;;;8.20;99.90;;;;;;6136708;23;20083;-89
2021/12/28 07:44:33;;;;;;;17.20;5.95;;;8.20;99.90;;;;;;6138121;23;20092;-88
2021/12/28 07:47:01;;;;;;;19.65;6.35;;;8.20;99.90;;;;;;6161479;23;20009;-88
2021/12/28 07:49:27;;;;;;;25.85;7.32;;;8.30;99.90;;;;;;6161019;23;20005;-88
2021/12/28 07:51:53;;;;;;;15.85;6.03;;;8.30;99.90;;;;;;6161726;23;20005;-87
2021/12/28 07:54:20;;;;;;;14.43;5.28;;;8.30;99.90;;;;;;6161513;23;20318;-88
2021/12/28 07:56:46;;;;;;;20.50;5.93;;;8.30;99.90;;;;;;6137209;23;20008;-88
2021/12/28 07:59:14;;;;;;;19.60;6.50;;;8.30;99.90;;;;;;6161309;23;20017;-89
2021/12/28 08:01:41;;;;;;;21.60;5.63;;;8.30;99.90;;;;;;6161619;23;20303;-90
2021/12/28 08:04:09;;;;;;;18.63;5.60;;;8.40;99.90;;;;;;6162582;23;20005;-88
2021/12/28 08:06:36;;;;;;;19.60;5.78;;;8.40;99.90;;;;;;6165144;23;20084;-87
2021/12/28 08:09:03;;;;;;;23.48;6.63;;;8.40;99.90;;;;;;6208385;23;20023;-86
2021/12/28 08:11:31;;;;;;;14.82;5.20;;;8.40;99.90;;;;;;6188424;22;20044;-88
2021/12/28 08:14:01;;;;;;;15.73;5.50;;;8.50;99.90;;;;;;6212647;23;20008;-88
2021/12/28 08:16:28;;;;;;;15.75;5.05;;;8.50;99.90;;;;;;6181809;23;20053;-86
2021/12/28 08:18:53;;;;;;;17.33;5.07;;;8.50;99.90;;;;;;6164550;23;20006;-86
2021/12/28 08:21:20;;;;;;;16.38;5.32;;;8.40;99.90;;;;;;6137736;23;20453;-87
2021/12/28 08:23:46;;;;;;;15.30;5.20;;;8.50;99.90;;;;;;6162846;23;20010;-87
2021/12/28 08:26:19;;;;;;;14.20;4.78;;;8.50;99.90;;;;;;6136949;23;20036;-87
2021/12/28 08:28:45;;;;;;;15.80;4.82;;;8.60;99.90;;;;;;6161005;23;20009;-86
2021/12/28 08:31:14;;;;;;;10.23;4.10;;;8.50;99.90;;;;;;6135614;23;20013;-87
2021/12/28 08:33:39;;;;;;;16.40;5.95;;;8.60;99.90;;;;;;6161145;23;20005;-87
2021/12/28 08:36:18;;;;;;;13.00;4.65;;;8.60;99.90;;;;;;6157709;23;20143;-87
2021/12/28 08:38:50;;;;;;;15.70;4.63;;;8.70;99.90;;;;;;6138930;23;20029;-86
2021/12/28 08:41:21;;;;;;;15.52;4.50;;;8.70;99.90;;;;;;6160516;23;20028;-87
2021/12/28 08:43:49;;;;;;;11.38;4.20;;;8.70;99.90;;;;;;6160078;23;20064;-87
2021/12/28 08:46:19;;;;;;;12.07;4.28;;;8.80;99.90;;;;;;6160784;23;20005;-87
2021/12/28 08:48:47;;;;;;;16.95;4.63;;;8.80;99.90;;;;;;6160833;23;20047;-87
2021/12/28 08:51:17;;;;;;;14.52;4.45;;;8.80;99.90;;;;;;6160869;23;20005;-86
2021/12/28 08:53:45;;;;;;;13.48;4.97;;;8.80;99.90;;;;;;6159713;23;20367;-87
2021/12/28 08:56:11;;;;;;;13.20;5.50;;;8.80;99.90;;;;;;6161166;23;20005;-86
2021/12/28 08:58:37;;;;;;;15.35;5.75;;;8.90;99.90;;;;;;6160693;23;20012;-86
2021/12/28 09:01:04;;;;;;;13.80;5.40;;;8.80;99.90;;;;;;6186932;23;20433;-85
2021/12/28 09:03:33;;;;;;;13.50;5.07;;;8.90;99.90;;;;;;6185800;23;20076;-86
2021/12/28 09:06:02;;;;;;;13.55;4.68;;;8.80;99.90;;;;;;6161043;23;20009;-87
2021/12/28 09:08:29;;;;;;;16.55;6.88;;;8.80;99.90;;;;;;6161436;23;20406;-86
2021/12/28 09:10:56;;;;;;;11.45;5.28;;;8.80;99.90;;;;;;6160672;23;20430;-87
2021/12/28 09:13:24;;;;;;;11.25;5.60;;;8.90;99.90;;;;;;6134508;23;20009;-86
2021/12/28 09:15:55;;;;;;;10.15;5.40;;;8.90;99.90;;;;;;6159671;23;20008;-86
2021/12/28 09:18:22;;;;;;;11.82;6.35;;;8.90;99.90;;;;;;6136301;23;20009;-86
2021/12/28 09:20:48;;;;;;;14.32;5.28;;;8.90;99.90;;;;;;6135297;23;20068;-86
2021/12/28 09:23:14;;;;;;;14.02;6.43;;;8.90;99.90;;;;;;6160230;23;20005;-87
2021/12/28 09:25:42;;;;;;;10.05;5.75;;;8.90;99.90;;;;;;6160347;23;20031;-87
2021/12/28 09:28:09;;;;;;;14.95;5.57;;;8.90;99.90;;;;;;6187031;23;19997;-86
2021/12/28 09:30:38;;;;;;;11.50;5.85;;;8.90;99.90;;;;;;6134711;23;20067;-85
2021/12/28 09:33:05;;;;;;;11.40;6.10;;;8.90;99.90;;;;;;6138553;23;20011;-87
2021/12/28 09:35:32;;;;;;;11.77;5.57;;;8.90;99.90;;;;;;6157231;23;20017;-87
2021/12/28 09:37:58;;;;;;;11.32;5.90;;;9.00;99.90;;;;;;6160389;23;20341;-86
2021/12/28 09:40:23;;;;;;;9.18;5.97;;;9.00;99.90;;;;;;6159099;23;20008;-86
2021/12/28 09:42:49;;;;;;;9.93;5.93;;;9.00;99.90;;;;;;6160506;23;20080;-87
2021/12/28 09:45:15;;;;;;;8.93;5.20;;;9.00;99.90;;;;;;6159561;23;20016;-88
2021/12/28 09:47:42;;;;;;;9.77;6.15;;;9.00;99.90;;;;;;6160366;23;20458;-86
2021/12/28 09:50:13;;;;;;;10.25;6.57;;;9.00;99.90;;;;;;6160250;23;20005;-87
2021/12/28 09:52:40;;;;;;;10.45;6.43;;;9.00;99.90;;;;;;6136633;23;20362;-87
2021/12/28 09:55:07;;;;;;;9.55;6.28;;;9.10;99.90;;;;;;6162079;23;20035;-87
2021/12/28 09:57:33;;;;;;;9.13;6.32;;;9.10;99.90;;;;;;6168016;23;20009;-87
2021/12/28 10:00:03;;;;;;;9.23;7.07;;;9.10;99.90;;;;;;6184940;23;20040;-87
2021/12/28 10:02:30;;;;;;;9.77;6.50;;;9.10;99.90;;;;;;6186428;23;20028;-88
2021/12/28 10:05:04;;;;;;;11.20;7.10;;;9.20;99.90;;;;;;6197327;22;20040;-87
2021/12/28 10:07:34;;;;;;;10.10;7.35;;;9.20;99.90;;;;;;6139782;23;20009;-88
2021/12/28 10:10:05;;;;;;;10.85;7.10;;;9.20;99.90;;;;;;6160918;23;20043;-87
2021/12/28 10:12:34;;;;;;;8.57;6.85;;;9.20;99.90;;;;;;6187880;23;20067;-89
2021/12/28 10:15:05;;;;;;;11.02;7.03;;;9.20;99.90;;;;;;6187168;23;20005;-89
2021/12/28 10:17:34;;;;;;;9.25;6.72;;;9.30;99.90;;;;;;6161601;23;20076;-88
2021/12/28 10:20:05;;;;;;;10.07;7.10;;;9.30;99.90;;;;;;6162517;23;20389;-88
2021/12/28 10:22:48;;;;;;;9.60;6.82;;;9.30;99.90;;;;;;6160178;23;20008;-88
2021/12/28 10:25:40;;;;;;;9.55;7.90;;;9.30;99.90;;;;;;6160622;23;20009;-88
2021/12/28 10:28:36;;;;;;;11.02;8.45;;;9.30;99.90;;;;;;6185761;23;20013;-87
2021/12/28 10:31:27;;;;;;;13.05;8.23;;;9.40;99.90;;;;;;6185774;23;20424;-88
2021/12/28 10:33:56;;;;;;;9.48;7.80;;;9.40;99.90;;;;;;6139104;23;20024;-87
2021/12/28 10:36:33;;;;;;;12.43;9.02;;;9.50;99.90;;;;;;6158948;23;20017;-87
2021/12/28 10:39:01;;;;;;;12.85;9.35;;;9.50;99.90;;;;;;6158853;23;20011;-86
2021/12/28 10:41:41;;;;;;;12.15;8.85;;;9.50;99.90;;;;;;6186131;23;20009;-87
2021/12/28 10:44:08;;;;;;;13.23;8.30;;;9.50;99.90;;;;;;6159068;23;20005;-87
2021/12/28 10:46:44;;;;;;;11.00;8.45;;;9.50;99.90;;;;;;6183233;23;20084;-88
2021/12/28 10:49:10;;;;;;;9.38;7.60;;;9.60;99.90;;;;;;6159626;23;20009;-87
2021/12/28 10:51:43;;;;;;;10.25;8.15;;;9.60;99.90;;;;;;6132868;23;20009;-87
2021/12/28 10:54:12;;;;;;;7.72;6.85;;;9.60;99.90;;;;;;6157307;23;20005;-88
2021/12/28 10:56:52;;;;;;;8.48;7.30;;;9.60;99.90;;;;;;6184102;23;19997;-88
2021/12/28 10:59:27;;;;;;;10.48;8.80;;;9.60;99.90;;;;;;6157641;23;20006;-85
2021/12/28 11:01:59;;;;;;;11.45;9.02;;;9.60;99.90;;;;;;6153569;23;20024;-87
2021/12/28 11:04:37;;;;;;;10.65;8.30;;;9.60;99.90;;;;;;6185420;23;19997;-85
2021/12/28 11:07:06;;;;;;;8.95;8.00;;;9.70;99.90;;;;;;6186537;23;20097;-86
2021/12/28 11:09:50;;;;;;;10.00;7.70;;;9.70;99.90;;;;;;6134887;23;20012;-87
2021/12/28 11:12:17;;;;;;;11.88;9.50;;;9.70;99.90;;;;;;6159361;23;20011;-87
2021/12/28 11:14:52;;;;;;;12.35;9.98;;;9.70;99.90;;;;;;6135262;23;20005;-86
2021/12/28 11:17:41;;;;;;;11.20;9.05;;;9.70;99.90;;;;;;6161658;23;20012;-87
2021/12/28 11:20:08;;;;;;;11.68;8.20;;;9.70;99.90;;;;;;6152446;23;20433;-87
2021/12/28 11:22:34;;;;;;;9.90;8.75;;;9.70;99.90;;;;;;6159579;23;20013;-86
2021/12/28 11:25:30;;;;;;;10.27;8.60;;;9.70;99.90;;;;;;6161295;23;20001;-86
2021/12/28 11:28:23;;;;;;;8.90;7.70;;;9.80;99.90;;;;;;6159384;23;20009;-87
2021/12/28 11:31:06;;;;;;;10.43;8.70;;;9.80;99.90;;;;;;6161362;23;20080;-86
2021/12/28 11:34:28;;;;;;;11.18;8.63;;;9.80;99.90;;;;;;6161217;23;20201;-86
2021/12/28 11:37:03;;;;;;;10.10;8.88;;;9.70;99.90;;;;;;6184480;23;20520;-88
2021/12/28 11:39:38;;;;;;;11.82;9.32;;;9.70;99.90;;;;;;6161889;23;20019;-88
2021/12/28 11:42:16;;;;;;;11.05;7.68;;;9.80;99.90;;;;;;6188118;23;20008;-88
2021/12/28 11:44:48;;;;;;;11.18;8.05;;;9.80;99.90;;;;;;6163000;23;20013;-87
2021/12/28 11:47:22;;;;;;;12.13;8.60;;;9.80;99.90;;;;;;6170164;23;20001;-87
2021/12/28 11:49:51;;;;;;;10.88;8.30;;;9.90;99.90;;;;;;6186493;23;19989;-87
2021/12/28 11:52:23;;;;;;;12.25;9.45;;;9.80;99.90;;;;;;6188218;22;20016;-85
2021/12/28 11:54:54;;;;;;;11.30;9.15;;;9.90;99.90;;;;;;6172939;23;20064;-87
2021/12/28 11:57:26;;;;;;;10.32;8.77;;;9.90;99.90;;;;;;6210097;23;20008;-87
2021/12/28 12:00:08;;;;;;;11.38;8.00;;;9.90;99.90;;;;;;6178089;23;20033;-86
2021/12/28 12:02:54;;;;;;;8.63;7.20;;;9.90;99.90;;;;;;6168369;23;20414;-86
2021/12/28 12:05:20;;;;;;;12.57;8.50;;;9.90;99.90;;;;;;6190980;23;20001;-86
2021/12/28 12:08:05;;;;;;;12.45;8.05;;;9.90;99.90;;;;;;6189943;23;20001;-86
2021/12/28 12:10:38;;;;;;;9.93;7.82;;;9.90;99.90;;;;;;6140074;23;20005;-87
2021/12/28 12:13:17;;;;;;;12.52;7.80;;;9.90;99.90;;;;;;6161722;23;20028;-86
2021/12/28 12:15:49;;;;;;;10.32;8.38;;;9.90;99.90;;;;;;6185874;23;20001;-86
2021/12/28 12:18:19;;;;;;;11.50;8.80;;;9.90;99.90;;;;;;6188716;23;20005;-86
2021/12/28 12:21:15;;;;;;;8.68;7.25;;;9.90;99.90;;;;;;6163201;23;20043;-86
2021/12/28 12:23:54;;;;;;;9.25;7.15;;;9.90;99.90;;;;;;6161406;23;20020;-86
2021/12/28 12:26:32;;;;;;;8.75;7.10;;;9.90;99.90;;;;;;6163177;23;20052;-86
2021/12/28 12:29:06;;;;;;;8.05;6.65;;;9.90;99.90;;;;;;6187278;23;19997;-87
2021/12/28 12:31:41;;;;;;;7.10;5.63;;;9.90;99.90;;;;;;6186906;23;20009;-86
2021/12/28 12:34:28;;;;;;;7.63;5.85;;;9.90;99.90;;;;;;6135781;23;20013;-87
2021/12/28 12:37:15;;;;;;;5.95;4.95;;;9.90;99.90;;;;;;6186550;23;20062;-87
2021/12/28 12:39:53;;;;;;;7.00;4.00;;;9.90;99.90;;;;;;6187574;23;20035;-86
2021/12/28 12:42:20;;;;;;;7.68;3.58;;;9.90;99.90;;;;;;6137710;23;20346;-86
2021/12/28 12:44:50;;;;;;;8.93;3.42;;;9.90;99.90;;;;;;6188083;23;20025;-88
2021/12/28 12:47:19;;;;;;;7.55;3.03;;;9.80;99.90;;;;;;6187907;23;20013;-89
2021/12/28 12:49:45;;;;;;;11.10;3.60;;;9.80;99.90;;;;;;6138965;23;20092;-88
2021/12/28 12:52:17;;;;;;;11.65;3.20;;;9.70;99.90;;;;;;6139102;23;20013;-88
2021/12/28 12:55:14;;;;;;;9.98;3.50;;;9.60;99.90;;;;;;6191186;23;20011;-85
2021/12/28 12:58:08;;;;;;;10.75;3.38;;;9.70;99.90;;;;;;6159702;23;20009;-88
2021/12/28 13:00:58;;;;;;;12.85;3.90;;;9.60;99.90;;;;;;6179673;23;20012;-87